Time;durP1;ratioP1;P1;durP2;ratioP2;P2;SDS_P1;SDS_P2;PMS_P1;PMS_P2;Temp;Humidity;BMP_temperature;BMP_pressure;BME280_temperature;BME280_humidity;BME280_pressure;Samples;Min_cycle;Max_cycle;Signal;HPM_P1;HPM_P2
2022/06/24 00:01:24;;;;;;;;;;;25.80;97.00;;;;;;5074099;28;19915;-47
2022/06/24 00:03:49;;;;;;;;;;;25.80;97.00;;;;;;5074036;28;19976;-49
2022/06/24 00:06:16;;;;;;;;;;;25.80;97.00;;;;;;5073810;28;19909;-47
2022/06/24 00:08:52;;;;;;;;;;;25.80;97.00;;;;;;5074080;28;19908;-49
2022/06/24 00:11:21;;;;;;;;;;;25.80;97.00;;;;;;5073916;28;19909;-47
2022/06/24 00:13:47;;;;;;;;;;;25.80;97.00;;;;;;5074277;28;19915;-45
2022/06/24 00:16:12;;;;;;;;;;;25.70;97.00;;;;;;5073565;28;20267;-48
2022/06/24 00:18:38;;;;;;;;;;;25.80;97.00;;;;;;5073947;28;19913;-45
2022/06/24 00:21:10;;;;;;;;;;;25.80;97.00;;;;;;5073920;28;20368;-45
2022/06/24 00:23:37;;;;;;;;;;;25.80;97.00;;;;;;5073575;28;19960;-46
2022/06/24 00:26:03;;;;;;;;;;;25.70;97.00;;;;;;5073619;28;19909;-46
2022/06/24 00:28:28;;;;;;;;;;;25.80;97.00;;;;;;5073531;28;19915;-49
2022/06/24 00:30:54;;;;;;;;;;;25.70;97.00;;;;;;5073718;28;19916;-47
2022/06/24 00:33:21;;;;;;;;;;;25.80;97.00;;;;;;5073526;28;19908;-47
2022/06/24 00:35:48;;;;;;;;;;;25.80;97.00;;;;;;5073364;28;19959;-47
2022/06/24 00:38:29;;;;;;;;;;;25.70;97.00;;;;;;5075722;28;19920;-49
2022/06/24 00:40:56;;;;;;;;;;;25.70;97.00;;;;;;5077306;28;19912;-46
2022/06/24 00:43:24;;;;;;;;;;;25.80;97.00;;;;;;5077513;28;19912;-47
2022/06/24 00:45:51;;;;;;;;;;;25.80;97.10;;;;;;5077213;28;19912;-45
2022/06/24 00:48:18;;;;;;;;;;;25.70;97.10;;;;;;5076980;28;19908;-44
2022/06/24 00:50:45;;;;;;;;;;;25.70;97.10;;;;;;5077330;28;20347;-46
2022/06/24 00:53:11;;;;;;;;;;;25.70;97.10;;;;;;5077343;28;20280;-46
2022/06/24 00:55:37;;;;;;;;;;;25.70;97.20;;;;;;5076788;28;19912;-46
2022/06/24 00:58:04;;;;;;;;;;;25.70;97.20;;;;;;5077272;28;19909;-46
2022/06/24 01:00:31;;;;;;;;;;;25.70;97.20;;;;;;5077132;28;19908;-51
2022/06/24 01:02:58;;;;;;;;;;;25.70;97.20;;;;;;5077181;28;19962;-47
2022/06/24 01:05:24;;;;;;;;;;;25.70;97.20;;;;;;5076734;28;19912;-45
2022/06/24 01:07:49;;;;;;;;;;;25.70;97.30;;;;;;5077037;28;19909;-46
2022/06/24 01:10:15;;;;;;;;;;;25.70;97.30;;;;;;5076617;28;20003;-45
2022/06/24 01:12:40;;;;;;;;;;;25.70;97.30;;;;;;5076719;28;20003;-47
2022/06/24 01:15:06;;;;;;;;;;;25.70;97.30;;;;;;5076836;28;19912;-48
2022/06/24 01:17:32;;;;;;;;;;;25.70;97.30;;;;;;5076514;28;20383;-50
2022/06/24 01:19:57;;;;;;;;;;;25.70;97.30;;;;;;5076892;28;19915;-45
2022/06/24 01:22:24;;;;;;;;;;;25.70;97.40;;;;;;5077194;28;19908;-49
2022/06/24 01:24:49;;;;;;;;;;;25.70;97.30;;;;;;5076795;28;19947;-49
2022/06/24 01:27:15;;;;;;;;;;;25.70;97.30;;;;;;5076749;28;19908;-46
2022/06/24 01:29:40;;;;;;;;;;;25.70;97.40;;;;;;5076646;28;19913;-46
2022/06/24 01:32:06;;;;;;;;;;;25.70;97.60;;;;;;5076427;28;19908;-48
2022/06/24 01:34:32;;;;;;;;;;;25.70;97.40;;;;;;5076322;28;19913;-46
2022/06/24 01:36:57;;;;;;;;;;;25.70;97.40;;;;;;5076651;28;19913;-48
2022/06/24 01:39:23;;;;;;;;;;;25.70;97.40;;;;;;5076818;28;19909;-47
2022/06/24 01:41:49;;;;;;;;;;;25.70;97.40;;;;;;5076166;28;19915;-46
2022/06/24 01:44:14;;;;;;;;;;;25.70;97.40;;;;;;5076161;28;19908;-46
2022/06/24 01:46:40;;;;;;;;;;;25.70;97.40;;;;;;5076132;28;20106;-50
2022/06/24 01:49:06;;;;;;;;;;;25.70;97.40;;;;;;5075585;28;19955;-49
2022/06/24 01:51:33;;;;;;;;;;;25.70;97.50;;;;;;5075969;28;20407;-47
2022/06/24 01:53:58;;;;;;;;;;;25.70;97.50;;;;;;5076032;28;19937;-45
2022/06/24 01:56:24;;;;;;;;;;;25.70;97.50;;;;;;5076058;28;20335;-49
2022/06/24 01:58:49;;;;;;;;;;;25.70;97.40;;;;;;5076196;28;19916;-46
2022/06/24 02:01:15;;;;;;;;;;;25.70;97.50;;;;;;5075787;28;19916;-44
2022/06/24 02:03:40;;;;;;;;;;;25.70;97.50;;;;;;5075849;28;19990;-47
2022/06/24 02:06:07;;;;;;;;;;;25.70;97.50;;;;;;5075733;28;19962;-49
2022/06/24 02:08:33;;;;;;;;;;;25.70;97.50;;;;;;5075904;28;20004;-46
2022/06/24 02:13:43;;;;;;;;;;;25.70;97.50;;;;;;5075719;28;20062;-45
2022/06/24 02:16:09;;;;;;;;;;;25.70;97.50;;;;;;5075491;28;19956;-46
2022/06/24 02:18:35;;;;;;;;;;;25.70;97.60;;;;;;5075824;28;19912;-46
2022/06/24 02:21:01;;;;;;;;;;;25.70;97.50;;;;;;5075508;28;20003;-47
2022/06/24 02:23:27;;;;;;;;;;;25.70;97.60;;;;;;5075426;28;19915;-47
2022/06/24 02:25:53;;;;;;;;;;;25.70;97.60;;;;;;5075345;28;19983;-45
2022/06/24 02:28:18;;;;;;;;;;;25.70;97.60;;;;;;5075369;28;19908;-46
2022/06/24 02:30:45;;;;;;;;;;;25.70;97.50;;;;;;5075548;28;19915;-47
2022/06/24 02:33:10;;;;;;;;;;;25.70;97.60;;;;;;5075835;28;20229;-47
2022/06/24 02:35:37;;;;;;;;;;;25.70;97.60;;;;;;5057476;28;19962;-47
2022/06/24 02:38:02;;;;;;;;;;;25.70;97.60;;;;;;5075100;28;19916;-45
2022/06/24 02:40:47;;;;;;;;;;;25.70;97.60;;;;;;5075346;28;20362;-49
2022/06/24 02:43:18;;;;;;;;;;;25.70;97.60;;;;;;5075162;28;19916;-45
2022/06/24 02:45:47;;;;;;;;;;;25.70;97.60;;;;;;5075009;28;19962;-45
2022/06/24 02:48:13;;;;;;;;;;;25.70;97.60;;;;;;5075270;28;20245;-46
2022/06/24 02:50:43;;;;;;;;;;;25.70;97.60;;;;;;5075414;28;19977;-48
2022/06/24 02:53:09;;;;;;;;;;;25.70;97.60;;;;;;5075017;28;19952;-48
2022/06/24 02:55:35;;;;;;;;;;;25.60;97.60;;;;;;5074526;28;19912;-51
2022/06/24 02:58:00;;;;;;;;;;;25.60;97.60;;;;;;5074680;28;20252;-49
2022/06/24 03:00:26;;;;;;;;;;;25.70;97.60;;;;;;5074327;28;19963;-45
2022/06/24 03:02:51;;;;;;;;;;;25.70;97.60;;;;;;5074929;28;20359;-46
2022/06/24 03:05:17;;;;;;;;;;;25.60;97.60;;;;;;5074921;28;19978;-46
2022/06/24 03:07:42;;;;;;;;;;;25.70;97.60;;;;;;5074842;28;19915;-47
2022/06/24 03:10:08;;;;;;;;;;;25.70;97.60;;;;;;5074623;28;19913;-49
2022/06/24 03:12:33;;;;;;;;;;;25.70;97.60;;;;;;5074371;28;19956;-46
2022/06/24 03:14:59;;;;;;;;;;;25.60;97.60;;;;;;5074299;28;19912;-45
2022/06/24 03:17:24;;;;;;;;;;;25.60;97.60;;;;;;5074348;28;19919;-48
2022/06/24 03:19:50;;;;;;;;;;;25.60;97.60;;;;;;5074320;28;19908;-46
2022/06/24 03:22:15;;;;;;;;;;;25.70;97.70;;;;;;5074241;28;19998;-46
2022/06/24 03:24:41;;;;;;;;;;;25.70;97.70;;;;;;5074413;28;20210;-49
2022/06/24 03:27:06;;;;;;;;;;;25.60;97.60;;;;;;5074432;28;19908;-45
2022/06/24 03:29:32;;;;;;;;;;;25.60;97.60;;;;;;5074123;28;20359;-47
2022/06/24 03:31:57;;;;;;;;;;;25.60;97.60;;;;;;5074263;28;19912;-47
2022/06/24 03:34:23;;;;;;;;;;;25.60;97.60;;;;;;5073747;28;19908;-52
2022/06/24 03:36:49;;;;;;;;;;;25.70;97.60;;;;;;5074450;28;19955;-50
2022/06/24 03:39:14;;;;;;;;;;;25.60;97.80;;;;;;5074312;28;19912;-46
2022/06/24 03:41:40;;;;;;;;;;;25.60;97.60;;;;;;5074038;28;20443;-46
2022/06/24 03:44:05;;;;;;;;;;;25.60;97.60;;;;;;5074325;28;19909;-51
2022/06/24 03:46:31;;;;;;;;;;;25.60;97.60;;;;;;5074211;28;19916;-49
2022/06/24 03:48:56;;;;;;;;;;;25.60;96.60;;;;;;5077306;28;19920;-46
2022/06/24 03:51:22;;;;;;;;;;;25.60;96.50;;;;;;5091301;28;19911;-46
2022/06/24 03:53:47;;;;;;;;;;;25.60;96.10;;;;;;5083479;28;20373;-48
2022/06/24 03:56:13;;;;;;;;;;;25.50;95.80;;;;;;5114161;28;20377;-52
2022/06/24 03:58:38;;;;;;;;;;;25.50;95.70;;;;;;5105697;28;19912;-49
2022/06/24 04:01:04;;;;;;;;;;;25.40;95.60;;;;;;5094173;28;19908;-50
2022/06/24 04:03:29;;;;;;;;;;;25.40;95.60;;;;;;5075889;28;19912;-46
2022/06/24 04:05:55;;;;;;;;;;;25.30;95.60;;;;;;5090176;28;19908;-46
2022/06/24 04:08:21;;;;;;;;;;;25.30;95.50;;;;;;5082398;28;19919;-48
2022/06/24 04:10:46;;;;;;;;;;;25.30;95.60;;;;;;5078248;28;19909;-48
2022/06/24 04:13:12;;;;;;;;;;;25.30;95.70;;;;;;5085440;28;19917;-50
2022/06/24 04:15:44;;;;;;;;;;;25.30;95.80;;;;;;5095844;28;19912;-51
2022/06/24 04:18:10;;;;;;;;;;;25.20;95.90;;;;;;5096811;28;19916;-48
2022/06/24 04:20:35;;;;;;;;;;;25.20;96.20;;;;;;5093034;28;19965;-47
2022/06/24 04:23:01;;;;;;;;;;;25.30;96.30;;;;;;5098119;28;19962;-48
2022/06/24 04:25:26;;;;;;;;;;;25.30;96.40;;;;;;5087038;28;19918;-48
2022/06/24 04:27:52;;;;;;;;;;;25.40;96.40;;;;;;5076370;28;19912;-49
2022/06/24 04:30:17;;;;;;;;;;;25.40;96.50;;;;;;5085919;28;19964;-47
2022/06/24 04:32:42;;;;;;;;;;;25.40;96.50;;;;;;5099135;28;20282;-53
2022/06/24 04:35:09;;;;;;;;;;;25.40;96.50;;;;;;5112787;28;19991;-46
2022/06/24 04:37:35;;;;;;;;;;;25.40;96.80;;;;;;5113482;28;19923;-46
2022/06/24 04:40:02;;;;;;;;;;;25.50;96.70;;;;;;5096933;28;19999;-45
2022/06/24 04:42:27;;;;;;;;;;;25.50;96.00;;;;;;5103963;28;20362;-46
2022/06/24 04:44:53;;;;;;;;;;;25.50;95.80;;;;;;5116766;28;19914;-47
2022/06/24 04:47:19;;;;;;;;;;;25.50;95.70;;;;;;5112355;28;19919;-47
2022/06/24 04:49:44;;;;;;;;;;;25.50;95.60;;;;;;5099586;28;20026;-49
2022/06/24 04:52:10;;;;;;;;;;;25.50;95.60;;;;;;5115645;28;20355;-48
2022/06/24 04:54:35;;;;;;;;;;;25.50;95.60;;;;;;5101499;28;19912;-52
2022/06/24 04:57:01;;;;;;;;;;;25.50;95.70;;;;;;5098846;28;19963;-49
2022/06/24 04:59:27;;;;;;;;;;;25.50;96.00;;;;;;5117288;28;19927;-45
2022/06/24 05:01:53;;;;;;;;;;;25.50;96.10;;;;;;5090638;28;19911;-47
2022/06/24 05:04:18;;;;;;;;;;;25.50;96.30;;;;;;5117287;28;20354;-48
2022/06/24 05:06:44;;;;;;;;;;;25.50;96.40;;;;;;5114175;28;19912;-49
2022/06/24 05:09:09;;;;;;;;;;;25.50;96.50;;;;;;5111870;28;19930;-49
2022/06/24 05:11:35;;;;;;;;;;;25.50;96.50;;;;;;5117215;28;20010;-44
2022/06/24 05:14:00;;;;;;;;;;;25.50;96.60;;;;;;5111053;28;19920;-46
2022/06/24 05:16:26;;;;;;;;;;;25.50;96.60;;;;;;5117287;28;19960;-45
2022/06/24 05:18:51;;;;;;;;;;;25.50;96.70;;;;;;5111952;28;20306;-46
2022/06/24 05:21:17;;;;;;;;;;;25.60;96.80;;;;;;5117013;28;20338;-44
2022/06/24 05:23:42;;;;;;;;;;;25.60;96.80;;;;;;5114002;28;20422;-45
2022/06/24 05:26:08;;;;;;;;;;;25.60;96.80;;;;;;5098509;28;19911;-46
2022/06/24 05:28:34;;;;;;;;;;;25.60;96.80;;;;;;5114880;28;19912;-46
2022/06/24 05:30:59;;;;;;;;;;;25.60;96.90;;;;;;5109262;28;19912;-47
2022/06/24 05:33:26;;;;;;;;;;;25.60;96.90;;;;;;5097751;28;19918;-45
2022/06/24 05:35:55;;;;;;;;;;;25.60;96.90;;;;;;5101723;28;20375;-48
2022/06/24 05:38:21;;;;;;;;;;;25.60;96.90;;;;;;5116664;28;19915;-50
2022/06/24 05:40:48;;;;;;;;;;;25.60;96.90;;;;;;5105815;28;20411;-46
2022/06/24 05:43:14;;;;;;;;;;;25.60;96.90;;;;;;5116415;28;20286;-46
2022/06/24 05:45:39;;;;;;;;;;;25.60;96.90;;;;;;5106694;28;20445;-46
2022/06/24 05:48:05;;;;;;;;;;;25.60;97.00;;;;;;5116429;28;20255;-45
2022/06/24 05:50:30;;;;;;;;;;;25.60;97.00;;;;;;5114426;28;19911;-48
2022/06/24 05:55:40;;;;;;;;;;;25.60;97.00;;;;;;5109621;28;20293;-47
2022/06/24 05:58:05;;;;;;;;;;;25.60;97.00;;;;;;5107163;28;19912;-46
2022/06/24 06:00:31;;;;;;;;;;;25.60;97.10;;;;;;5100646;28;20274;-46
2022/06/24 06:02:57;;;;;;;;;;;25.60;97.10;;;;;;5110214;28;20319;-50
2022/06/24 06:05:22;;;;;;;;;;;25.60;95.90;;;;;;5089670;28;19953;-49
2022/06/24 06:07:48;;;;;;;;;;;25.60;95.30;;;;;;5113560;28;19912;-47
2022/06/24 06:10:13;;;;;;;;;;;25.60;95.10;;;;;;5112623;28;19919;-46
2022/06/24 06:12:39;;;;;;;;;;;25.60;95.60;;;;;;5082257;28;20362;-49
2022/06/24 06:15:04;;;;;;;;;;;25.60;96.00;;;;;;5079527;28;19917;-50
2022/06/24 06:17:30;;;;;;;;;;;25.60;96.40;;;;;;5101137;28;19915;-45
2022/06/24 06:19:55;;;;;;;;;;;25.60;96.60;;;;;;5092687;28;19913;-48
2022/06/24 06:22:21;;;;;;;;;;;25.60;96.70;;;;;;5087543;28;20436;-50
2022/06/24 06:24:46;;;;;;;;;;;25.60;96.80;;;;;;5112102;28;19912;-50
2022/06/24 06:27:12;;;;;;;;;;;25.60;96.70;;;;;;5092861;28;19915;-50
2022/06/24 06:29:37;;;;;;;;;;;25.70;96.40;;;;;;5115481;28;19908;-47
2022/06/24 06:32:03;;;;;;;;;;;25.70;96.30;;;;;;5110671;28;19912;-51
2022/06/24 06:34:29;;;;;;;;;;;25.60;95.80;;;;;;5115036;28;19915;-54
2022/06/24 06:36:55;;;;;;;;;;;25.60;95.90;;;;;;5108537;28;20014;-47
2022/06/24 06:39:20;;;;;;;;;;;25.60;95.90;;;;;;5110203;28;19920;-53
2022/06/24 06:41:46;;;;;;;;;;;25.60;95.70;;;;;;5113274;28;19911;-54
2022/06/24 06:44:13;;;;;;;;;;;25.60;95.70;;;;;;5106685;28;19927;-54
2022/06/24 06:46:39;;;;;;;;;;;25.60;95.70;;;;;;5106978;28;19946;-48
2022/06/24 06:49:04;;;;;;;;;;;25.60;95.70;;;;;;5106740;28;19965;-53
2022/06/24 06:51:30;;;;;;;;;;;25.60;95.70;;;;;;5115162;28;19907;-49
2022/06/24 06:53:55;;;;;;;;;;;25.60;95.70;;;;;;5112038;28;19950;-53
2022/06/24 06:56:21;;;;;;;;;;;25.60;95.80;;;;;;5113010;28;20296;-50
2022/06/24 06:58:46;;;;;;;;;;;25.60;95.70;;;;;;5109161;28;19918;-50
2022/06/24 07:01:12;;;;;;;;;;;25.60;95.80;;;;;;5104109;28;19912;-57
2022/06/24 07:03:37;;;;;;;;;;;25.60;95.80;;;;;;5080254;28;19912;-49
2022/06/24 07:06:03;;;;;;;;;;;25.60;95.80;;;;;;5101335;28;20270;-50
2022/06/24 07:08:28;;;;;;;;;;;25.50;95.90;;;;;;5112940;28;19912;-51
2022/06/24 07:10:54;;;;;;;;;;;25.60;96.10;;;;;;5110823;28;19908;-51
2022/06/24 07:13:20;;;;;;;;;;;25.60;96.20;;;;;;5092979;28;19991;-51
2022/06/24 07:15:45;;;;;;;;;;;25.50;96.30;;;;;;5095318;28;19919;-49
2022/06/24 07:18:10;;;;;;;;;;;25.50;96.40;;;;;;5106725;28;19916;-59
2022/06/24 07:20:36;;;;;;;;;;;25.50;96.50;;;;;;5104501;28;19955;-50
2022/06/24 07:23:02;;;;;;;;;;;25.50;96.50;;;;;;5112579;28;19971;-54
2022/06/24 07:25:27;;;;;;;;;;;25.50;96.60;;;;;;5105233;28;20302;-55
2022/06/24 07:27:54;;;;;;;;;;;25.60;96.60;;;;;;5106059;28;20270;-47
2022/06/24 07:30:19;;;;;;;;;;;25.60;96.60;;;;;;5098786;28;19950;-49
2022/06/24 07:32:45;;;;;;;;;;;25.60;96.60;;;;;;5103900;28;19978;-49
2022/06/24 07:35:11;;;;;;;;;;;25.60;96.70;;;;;;5104431;28;20398;-48
2022/06/24 07:37:36;;;;;;;;;;;25.60;96.70;;;;;;5111914;28;19919;-49
2022/06/24 07:40:02;;;;;;;;;;;25.60;96.80;;;;;;5114995;28;19915;-48
2022/06/24 07:42:27;;;;;;;;;;;25.60;96.80;;;;;;5112460;28;19930;-50
2022/06/24 07:44:53;;;;;;;;;;;25.70;96.90;;;;;;5114624;28;19918;-47
2022/06/24 07:47:18;;;;;;;;;;;25.60;96.90;;;;;;5104048;28;19908;-52
2022/06/24 07:49:44;;;;;;;;;;;25.70;96.90;;;;;;5114353;28;20442;-48
2022/06/24 07:52:09;;;;;;;;;;;25.70;97.10;;;;;;5100820;28;19909;-47
2022/06/24 07:54:35;;;;;;;;;;;25.70;96.90;;;;;;5097162;28;19916;-50
2022/06/24 07:57:03;;;;;;;;;;;25.70;96.90;;;;;;5093367;28;20501;-52
2022/06/24 07:59:29;;;;;;;;;;;25.70;96.90;;;;;;5096104;28;19970;-48
2022/06/24 08:01:55;;;;;;;;;;;25.70;97.00;;;;;;5102654;28;19965;-48
2022/06/24 08:04:21;;;;;;;;;;;25.70;96.90;;;;;;5107220;28;20328;-46
2022/06/24 08:06:49;;;;;;;;;;;25.70;97.00;;;;;;5114075;28;19912;-52
2022/06/24 08:09:16;;;;;;;;;;;25.70;97.00;;;;;;5108748;28;19912;-50
2022/06/24 08:11:41;;;;;;;;;;;25.70;97.00;;;;;;5105618;28;19912;-55
2022/06/24 08:14:08;;;;;;;;;;;25.70;97.10;;;;;;5113475;28;19965;-50
2022/06/24 08:16:33;;;;;;;;;;;25.70;97.10;;;;;;5111826;28;19923;-48
2022/06/24 08:18:59;;;;;;;;;;;25.70;97.10;;;;;;5114130;28;19925;-50
2022/06/24 08:21:24;;;;;;;;;;;25.70;97.20;;;;;;5111974;28;19912;-51
2022/06/24 08:23:50;;;;;;;;;;;25.70;97.30;;;;;;5113658;28;19912;-48
2022/06/24 08:26:16;;;;;;;;;;;25.70;97.20;;;;;;5110337;28;20350;-47
2022/06/24 08:28:42;;;;;;;;;;;25.70;97.30;;;;;;5114283;28;20273;-46
2022/06/24 08:31:07;;;;;;;;;;;25.80;97.20;;;;;;5107772;28;19920;-49
2022/06/24 08:33:33;;;;;;;;;;;25.80;97.20;;;;;;5092451;28;19912;-52
2022/06/24 08:35:58;;;;;;;;;;;25.80;97.20;;;;;;5079308;28;20319;-49
2022/06/24 08:38:24;;;;;;;;;;;25.70;97.30;;;;;;5110434;28;19916;-46
2022/06/24 08:40:50;;;;;;;;;;;25.70;97.20;;;;;;5110213;28;20002;-50
2022/06/24 08:43:16;;;;;;;;;;;25.80;97.40;;;;;;5095801;28;19923;-53
2022/06/24 08:45:41;;;;;;;;;;;25.80;97.40;;;;;;5111428;28;19907;-55
2022/06/24 08:48:10;;;;;;;;;;;25.80;97.30;;;;;;5097702;28;19912;-48
2022/06/24 08:50:36;;;;;;;;;;;25.80;97.30;;;;;;5113239;28;19908;-58
2022/06/24 08:53:06;;;;;;;;;;;25.80;97.40;;;;;;5112353;28;19918;-51
2022/06/24 08:55:36;;;;;;;;;;;25.80;97.40;;;;;;5109987;28;20010;-48
2022/06/24 08:58:11;;;;;;;;;;;25.80;97.40;;;;;;5069296;28;19982;-47
2022/06/24 09:00:37;;;;;;;;;;;25.80;97.40;;;;;;5094880;28;20003;-48
2022/06/24 09:03:03;;;;;;;;;;;25.80;97.40;;;;;;5092777;28;19912;-46
2022/06/24 09:05:29;;;;;;;;;;;25.90;97.40;;;;;;5090397;28;19908;-47
2022/06/24 09:08:05;;;;;;;;;;;25.90;97.40;;;;;;5096679;28;20366;-50
2022/06/24 09:10:30;;;;;;;;;;;25.80;97.40;;;;;;5094333;28;20359;-48
2022/06/24 09:12:56;;;;;;;;;;;25.90;97.40;;;;;;5093119;28;19919;-48
2022/06/24 09:15:21;;;;;;;;;;;25.90;97.40;;;;;;5083946;28;19924;-48
2022/06/24 09:17:47;;;;;;;;;;;25.90;97.20;;;;;;5093401;28;19915;-52
2022/06/24 09:20:14;;;;;;;;;;;25.80;95.00;;;;;;5089279;28;19921;-49
2022/06/24 09:22:40;;;;;;;;;;;25.80;94.80;;;;;;5085861;28;20329;-47
2022/06/24 09:25:06;;;;;;;;;;;25.80;95.70;;;;;;5096366;28;19952;-48
2022/06/24 09:27:32;;;;;;;;;;;25.80;96.10;;;;;;5094028;28;19912;-50
2022/06/24 09:29:58;;;;;;;;;;;25.80;96.50;;;;;;5093001;28;19912;-49
2022/06/24 09:32:23;;;;;;;;;;;25.80;96.80;;;;;;5094117;28;19908;-47
2022/06/24 09:34:59;;;;;;;;;;;25.90;97.10;;;;;;5096902;28;20002;-46
2022/06/24 09:37:41;;;;;;;;;;;25.90;96.90;;;;;;5089509;28;20400;-50
2022/06/24 09:40:15;;;;;;;;;;;25.90;97.00;;;;;;5092760;28;20011;-51
2022/06/24 09:42:41;;;;;;;;;;;25.90;97.00;;;;;;5089834;28;19934;-48
2022/06/24 09:45:07;;;;;;;;;;;25.90;97.00;;;;;;5087949;28;19912;-45
2022/06/24 09:47:46;;;;;;;;;;;25.90;97.10;;;;;;5095172;28;19935;-47
2022/06/24 09:50:12;;;;;;;;;;;25.90;97.00;;;;;;5091373;28;19912;-45
2022/06/24 09:52:38;;;;;;;;;;;25.90;97.10;;;;;;5096530;28;20415;-43
2022/06/24 09:55:04;;;;;;;;;;;25.90;97.10;;;;;;5088688;28;19908;-43
2022/06/24 09:57:30;;;;;;;;;;;26.00;97.20;;;;;;5102660;28;19993;-47
2022/06/24 10:02:41;;;;;;;;;;;26.00;97.20;;;;;;5101309;28;20266;-50
2022/06/24 10:05:07;;;;;;;;;;;26.00;97.10;;;;;;5116259;28;19922;-51
2022/06/24 10:07:34;;;;;;;;;;;26.00;97.10;;;;;;5088293;28;20377;-50
2022/06/24 10:10:02;;;;;;;;;;;26.00;97.10;;;;;;5093406;28;20269;-48
2022/06/24 10:12:28;;;;;;;;;;;26.00;97.20;;;;;;5103557;28;19919;-48
2022/06/24 10:14:53;;;;;;;;;;;26.00;97.20;;;;;;5110496;28;19916;-52
2022/06/24 10:17:19;;;;;;;;;;;26.00;97.20;;;;;;5108008;28;19936;-47
2022/06/24 10:19:45;;;;;;;;;;;26.00;97.20;;;;;;5106979;28;20004;-49
2022/06/24 10:22:30;;;;;;;;;;;26.00;97.30;;;;;;5107908;28;20414;-51
2022/06/24 10:24:56;;;;;;;;;;;26.00;97.30;;;;;;5105089;28;19931;-50
2022/06/24 10:27:41;;;;;;;;;;;26.00;97.30;;;;;;5114251;28;19927;-51
2022/06/24 10:30:08;;;;;;;;;;;26.00;97.30;;;;;;5099250;28;19965;-47
2022/06/24 10:32:34;;;;;;;;;;;26.00;97.30;;;;;;5093459;28;20403;-48
2022/06/24 10:35:05;;;;;;;;;;;26.00;97.30;;;;;;5098918;28;19911;-54
2022/06/24 10:37:30;;;;;;;;;;;26.00;97.40;;;;;;5108012;28;19912;-47
2022/06/24 10:39:57;;;;;;;;;;;26.00;97.40;;;;;;5100714;28;19917;-50
2022/06/24 10:42:24;;;;;;;;;;;26.10;97.40;;;;;;5090760;28;19951;-49
2022/06/24 10:44:57;;;;;;;;;;;26.10;97.30;;;;;;5113878;28;19912;-51
2022/06/24 10:47:29;;;;;;;;;;;26.10;97.30;;;;;;5098962;28;19915;-48
2022/06/24 10:49:55;;;;;;;;;;;26.10;97.30;;;;;;5107902;28;20423;-46
2022/06/24 10:52:37;;;;;;;;;;;26.10;97.20;;;;;;5097322;28;19907;-47
2022/06/24 10:55:18;;;;;;;;;;;26.10;97.30;;;;;;5109107;28;19915;-45
2022/06/24 10:57:43;;;;;;;;;;;26.10;97.20;;;;;;5101810;28;19964;-47
2022/06/24 11:00:13;;;;;;;;;;;26.10;97.20;;;;;;5101348;28;19912;-46
2022/06/24 11:02:38;;;;;;;;;;;26.10;97.10;;;;;;5105352;28;20282;-47
2022/06/24 11:05:07;;;;;;;;;;;26.10;97.00;;;;;;5109866;28;19912;-54
2022/06/24 11:07:32;;;;;;;;;;;26.10;97.20;;;;;;5094756;28;19912;-47
2022/06/24 11:09:58;;;;;;;;;;;26.00;97.20;;;;;;5106250;28;19919;-50
2022/06/24 11:12:28;;;;;;;;;;;26.10;97.30;;;;;;5110297;28;20359;-51
2022/06/24 11:14:53;;;;;;;;;;;26.00;97.30;;;;;;5108591;28;20387;-47
2022/06/24 11:17:22;;;;;;;;;;;26.10;97.30;;;;;;5105477;28;19978;-48
2022/06/24 11:19:47;;;;;;;;;;;26.10;97.30;;;;;;5112374;28;19908;-47
2022/06/24 11:22:13;;;;;;;;;;;26.10;97.30;;;;;;5114087;28;19915;-47
2022/06/24 11:24:39;;;;;;;;;;;26.10;97.30;;;;;;5106642;28;19934;-48
2022/06/24 11:27:06;;;;;;;;;;;26.10;97.30;;;;;;5100879;28;19918;-49
2022/06/24 11:29:47;;;;;;;;;;;26.10;97.30;;;;;;5102281;28;19996;-48
2022/06/24 11:32:13;;;;;;;;;;;26.10;97.40;;;;;;5101361;28;19916;-49
2022/06/24 11:34:38;;;;;;;;;;;26.10;97.40;;;;;;5110992;28;20011;-47
2022/06/24 11:37:04;;;;;;;;;;;26.10;97.40;;;;;;5107775;28;19932;-46
2022/06/24 11:39:31;;;;;;;;;;;26.10;97.40;;;;;;5075098;28;20361;-46
2022/06/24 11:41:57;;;;;;;;;;;26.10;97.40;;;;;;5100758;28;19911;-46
2022/06/24 11:44:33;;;;;;;;;;;26.10;97.40;;;;;;5111883;28;19908;-47
2022/06/24 11:46:58;;;;;;;;;;;26.10;97.40;;;;;;5099882;28;19959;-51
2022/06/24 11:49:25;;;;;;;;;;;26.10;97.40;;;;;;5108950;28;19958;-49
2022/06/24 11:51:51;;;;;;;;;;;26.10;97.40;;;;;;5108930;28;19912;-48
2022/06/24 11:54:16;;;;;;;;;;;26.10;97.40;;;;;;5114445;28;19953;-48
2022/06/24 11:56:42;;;;;;;;;;;26.10;97.40;;;;;;5103992;28;19923;-47
2022/06/24 11:59:09;;;;;;;;;;;26.10;97.40;;;;;;5107479;28;20350;-50
2022/06/24 12:01:35;;;;;;;;;;;26.10;97.40;;;;;;5099460;28;19912;-47
2022/06/24 12:04:01;;;;;;;;;;;26.20;97.50;;;;;;5096885;28;20278;-50
2022/06/24 12:06:28;;;;;;;;;;;26.10;96.10;;;;;;5090035;28;19916;-47
2022/06/24 12:08:54;;;;;;;;;;;26.10;95.60;;;;;;5109642;28;20371;-50
2022/06/24 12:11:20;;;;;;;;;;;26.10;96.20;;;;;;5111448;28;19955;-50
2022/06/24 12:14:05;;;;;;;;;;;26.10;96.80;;;;;;5101252;28;19927;-50
2022/06/24 12:16:49;;;;;;;;;;;26.10;97.30;;;;;;5111783;28;19919;-47
2022/06/24 12:19:14;;;;;;;;;;;26.10;97.40;;;;;;5102206;28;19923;-51
2022/06/24 12:21:40;;;;;;;;;;;26.10;97.20;;;;;;5092434;28;20266;-50
2022/06/24 12:24:26;;;;;;;;;;;26.10;97.20;;;;;;5107344;28;19912;-47
2022/06/24 12:26:53;;;;;;;;;;;26.10;97.30;;;;;;5096562;28;19918;-50
2022/06/24 12:29:26;;;;;;;;;;;26.10;97.30;;;;;;5108479;28;19956;-48
2022/06/24 12:31:52;;;;;;;;;;;26.10;97.30;;;;;;5109200;28;20007;-49
2022/06/24 12:34:24;;;;;;;;;;;26.10;97.40;;;;;;5106546;28;19995;-49
2022/06/24 12:36:54;;;;;;;;;;;26.10;97.40;;;;;;5113708;28;19912;-47
2022/06/24 12:39:25;;;;;;;;;;;26.10;97.40;;;;;;5111806;28;20415;-47
2022/06/24 12:41:51;;;;;;;;;;;26.10;97.40;;;;;;5112878;28;19919;-51
2022/06/24 12:44:16;;;;;;;;;;;26.20;97.40;;;;;;5105202;28;19912;-52
2022/06/24 12:52:32;;;;;;;;;;;26.30;97.30;;;;;;5097561;28;19915;-49
2022/06/24 12:54:57;;;;;;;;;;;26.30;97.50;;;;;;5112448;28;19912;-45
2022/06/24 12:57:23;;;;;;;;;;;26.30;97.60;;;;;;5093680;28;20037;-41
2022/06/24 12:59:48;;;;;;;;;;;26.20;95.20;;;;;;5096952;28;19908;-40
2022/06/24 13:02:14;;;;;;;;;;;26.20;96.10;;;;;;5111768;28;19908;-41
2022/06/24 13:04:39;;;;;;;;;;;26.20;96.40;;;;;;5087934;28;20314;-42
2022/06/24 13:07:06;;;;;;;;;;;26.20;96.80;;;;;;5116901;28;19907;-43
2022/06/24 13:09:31;;;;;;;;;;;26.20;97.30;;;;;;5116854;28;20354;-41
2022/06/24 13:11:57;;;;;;;;;;;26.20;97.40;;;;;;5116710;28;19915;-43
2022/06/24 13:14:22;;;;;;;;;;;26.20;97.40;;;;;;5116533;28;19919;-41
2022/06/24 13:16:48;;;;;;;;;;;26.20;97.40;;;;;;5098678;28;20095;-42
2022/06/24 13:19:13;;;;;;;;;;;26.20;97.40;;;;;;5116745;28;19908;-41
2022/06/24 13:21:39;;;;;;;;;;;26.20;97.40;;;;;;5117122;28;20010;-43
2022/06/24 13:24:04;;;;;;;;;;;26.20;97.40;;;;;;5116973;28;20251;-42
2022/06/24 13:26:30;;;;;;;;;;;26.10;97.40;;;;;;5117248;28;19998;-42
2022/06/24 13:28:55;;;;;;;;;;;26.10;97.40;;;;;;5116894;28;19915;-42
2022/06/24 13:31:22;;;;;;;;;;;26.10;97.40;;;;;;5116527;28;19907;-43
2022/06/24 13:33:48;;;;;;;;;;;26.10;97.40;;;;;;5116581;28;19953;-43
2022/06/24 13:36:13;;;;;;;;;;;26.10;97.30;;;;;;5117027;28;19928;-43
2022/06/24 13:38:39;;;;;;;;;;;26.10;97.40;;;;;;5098590;28;20354;-42
2022/06/24 13:41:06;;;;;;;;;;;26.10;97.30;;;;;;5116685;28;19995;-42
2022/06/24 13:43:31;;;;;;;;;;;26.10;97.30;;;;;;5116467;28;19943;-42
2022/06/24 13:45:56;;;;;;;;;;;26.10;97.30;;;;;;5116551;28;19915;-43
2022/06/24 13:48:22;;;;;;;;;;;26.10;97.30;;;;;;5116310;28;20348;-42
2022/06/24 13:50:47;;;;;;;;;;;26.10;97.50;;;;;;5116235;28;19907;-43
2022/06/24 13:53:13;;;;;;;;;;;26.10;97.30;;;;;;5116384;28;20346;-42
2022/06/24 13:55:38;;;;;;;;;;;26.10;97.30;;;;;;5116079;28;19961;-47
2022/06/24 13:58:04;;;;;;;;;;;26.10;97.20;;;;;;5116605;28;19977;-44
2022/06/24 14:00:29;;;;;;;;;;;26.10;97.20;;;;;;5116554;28;19908;-45
2022/06/24 14:02:55;;;;;;;;;;;26.10;97.20;;;;;;5116227;28;19908;-41
2022/06/24 14:05:21;;;;;;;;;;;26.10;97.20;;;;;;5116395;28;19914;-42
2022/06/24 14:07:47;;;;;;;;;;;26.10;97.50;;;;;;5098027;28;19908;-42
2022/06/24 14:10:12;;;;;;;;;;;26.10;97.20;;;;;;5116552;28;20362;-43
2022/06/24 14:12:38;;;;;;;;;;;26.00;97.20;;;;;;5115744;28;19911;-43
2022/06/24 14:15:04;;;;;;;;;;;26.00;97.10;;;;;;5115754;28;19978;-41
2022/06/24 14:17:29;;;;;;;;;;;26.00;97.10;;;;;;5115743;28;19912;-42
2022/06/24 14:19:55;;;;;;;;;;;25.90;97.10;;;;;;5115768;28;20006;-44
2022/06/24 14:22:20;;;;;;;;;;;26.00;97.20;;;;;;5115579;28;19908;-42
2022/06/24 14:24:46;;;;;;;;;;;25.90;97.10;;;;;;5115571;28;20346;-42
2022/06/24 14:27:11;;;;;;;;;;;25.90;97.10;;;;;;5115725;28;19914;-41